createdAt,value
2019-05-15T00:00:51.847Z,25.97
2019-05-15T00:03:23.441Z,26.85
2019-05-15T00:05:54.942Z,25.65
2019-05-15T00:08:30.022Z,26.48
2019-05-15T00:11:01.626Z,26.95
2019-05-15T00:13:34.501Z,26.42
2019-05-15T00:16:08.455Z,26.57
2019-05-15T00:18:43.740Z,26.17
2019-05-15T00:21:15.248Z,27.02
2019-05-15T00:23:49.264Z,27.42
2019-05-15T00:26:20.991Z,26.33
2019-05-15T00:28:52.616Z,26.27
2019-05-15T00:31:24.309Z,26.75
2019-05-15T00:34:00.009Z,26.20
2019-05-15T00:36:32.899Z,26.12
2019-05-15T00:39:08.264Z,25.12
2019-05-15T00:44:12.610Z,26.40
2019-05-15T00:46:45.278Z,26.42
2019-05-15T00:49:18.856Z,25.43
2019-05-15T00:51:51.219Z,27.52
2019-05-15T00:54:22.775Z,25.65
2019-05-15T00:56:54.390Z,25.57
2019-05-15T00:59:30.074Z,25.52
2019-05-15T01:02:00.200Z,24.43
2019-05-15T01:04:31.748Z,26.62
2019-05-15T01:07:03.341Z,26.15
2019-05-15T01:09:34.881Z,25.23
2019-05-15T01:12:08.890Z,25.02
2019-05-15T01:14:40.496Z,25.77
2019-05-15T01:17:13.115Z,25.08
2019-05-15T01:19:44.821Z,24.67
2019-05-15T01:22:16.376Z,25.12
2019-05-15T01:24:48.554Z,24.25
2019-05-15T01:27:20.503Z,22.25
2019-05-15T01:29:52.020Z,22.98
2019-05-15T01:32:24.552Z,23.10
2019-05-15T01:34:58.088Z,21.15
2019-05-15T01:37:29.786Z,21.42
2019-05-15T01:40:01.363Z,21.25
2019-05-15T01:42:32.886Z,21.45
2019-05-15T01:45:05.766Z,21.20
2019-05-15T01:47:39.031Z,22.35
2019-05-15T01:50:12.128Z,21.27
2019-05-15T01:52:43.729Z,21.93
2019-05-15T01:55:15.376Z,22.15
2019-05-15T01:57:48.701Z,21.65
2019-05-15T02:00:20.774Z,21.30
2019-05-15T02:02:52.384Z,21.48
2019-05-15T02:05:23.943Z,20.97
2019-05-15T02:07:55.510Z,21.65
2019-05-15T02:10:29.210Z,20.65
2019-05-15T02:13:00.339Z,21.87
2019-05-15T02:15:31.975Z,22.35
2019-05-15T02:18:03.522Z,22.58
2019-05-15T02:20:35.181Z,21.33
2019-05-15T02:23:11.413Z,22.15
2019-05-15T02:25:40.070Z,22.60
2019-05-15T02:28:13.614Z,23.80
2019-05-15T02:30:45.224Z,23.83
2019-05-15T02:33:18.852Z,22.15
2019-05-15T02:35:50.580Z,23.60
2019-05-15T02:38:23.909Z,22.70
2019-05-15T02:40:59.015Z,23.95
2019-05-15T02:43:29.847Z,22.30
2019-05-15T02:46:02.698Z,22.98
2019-05-15T02:48:34.303Z,23.70
2019-05-15T02:51:05.841Z,21.80
2019-05-15T02:53:39.678Z,23.18
2019-05-15T02:56:11.469Z,22.82
2019-05-15T02:58:43.983Z,23.00
2019-05-15T03:01:18.739Z,22.75
2019-05-15T03:03:50.074Z,22.20
2019-05-15T03:06:22.947Z,22.73
2019-05-15T03:08:55.504Z,21.42
2019-05-15T03:11:29.484Z,22.35
2019-05-15T03:14:01.635Z,22.25
2019-05-15T03:16:34.192Z,22.65
2019-05-15T03:19:05.722Z,23.30
2019-05-15T03:21:38.889Z,22.62
2019-05-15T03:24:12.125Z,22.52
2019-05-15T03:26:43.627Z,24.30
2019-05-15T03:29:16.122Z,23.60
2019-05-15T03:32:05.152Z,29.15
2019-05-15T03:34:28.431Z,25.12
2019-05-15T03:36:54.220Z,27.10
2019-05-15T03:39:25.766Z,28.98
2019-05-15T03:42:01.512Z,28.55
2019-05-15T03:44:33.081Z,25.62
2019-05-15T03:47:04.857Z,27.80
2019-05-15T03:49:39.720Z,28.62
2019-05-15T03:52:13.668Z,28.02
2019-05-15T03:54:45.224Z,32.08
2019-05-15T03:57:20.098Z,32.15
2019-05-15T03:59:50.063Z,31.48
2019-05-15T04:02:21.666Z,29.67
2019-05-15T04:04:56.988Z,32.38
2019-05-15T04:07:29.146Z,31.35
2019-05-15T04:10:00.847Z,31.07
2019-05-15T04:12:32.568Z,28.65
2019-05-15T04:15:05.392Z,29.27
2019-05-15T04:17:39.807Z,29.70
2019-05-15T04:20:10.884Z,28.87
2019-05-15T04:22:42.580Z,33.38
2019-05-15T04:25:15.279Z,31.35
2019-05-15T04:27:49.280Z,34.92
2019-05-15T04:30:22.023Z,32.78
2019-05-15T04:32:53.608Z,32.67
2019-05-15T04:35:25.150Z,32.90
2019-05-15T04:37:59.428Z,34.73
2019-05-15T04:40:30.111Z,30.37
2019-05-15T04:43:01.661Z,26.75
2019-05-15T04:45:35.110Z,25.82
2019-05-15T04:48:09.825Z,26.47
2019-05-15T04:50:40.410Z,26.47
2019-05-15T04:53:13.221Z,22.90
2019-05-15T04:55:49.081Z,24.35
2019-05-15T04:58:21.364Z,24.85
2019-05-15T05:00:54.536Z,20.85
2019-05-15T05:03:28.810Z,22.22
2019-05-15T05:05:59.559Z,21.20
2019-05-15T05:08:31.131Z,22.82
2019-05-15T05:11:02.665Z,26.17
2019-05-15T05:13:34.187Z,24.87
2019-05-15T05:16:05.746Z,26.77
2019-05-15T05:18:40.897Z,28.23
2019-05-15T05:21:10.454Z,29.00
2019-05-15T05:23:43.242Z,32.50
2019-05-15T05:26:14.804Z,32.98
2019-05-15T05:28:48.435Z,35.25
2019-05-15T05:31:20.699Z,36.20
2019-05-15T05:33:57.719Z,36.00
2019-05-15T05:36:29.201Z,35.08
2019-05-15T05:39:00.723Z,34.45
2019-05-15T05:41:32.323Z,36.50
2019-05-15T05:44:08.103Z,36.53
2019-05-15T05:46:39.904Z,36.80
2019-05-15T05:49:12.742Z,47.45
2019-05-15T05:51:47.939Z,44.08
2019-05-15T05:54:20.457Z,47.20
2019-05-15T05:56:52.035Z,45.60
2019-05-15T05:59:23.783Z,45.25
2019-05-15T06:01:58.937Z,30.17
2019-05-15T06:04:30.417Z,30.00
2019-05-15T06:07:11.124Z,24.47
2019-05-15T06:09:38.027Z,29.37
2019-05-15T06:12:10.690Z,32.17
2019-05-15T06:14:42.551Z,41.48
2019-05-15T06:17:14.191Z,42.03
2019-05-15T06:19:48.043Z,46.80
2019-05-15T06:22:20.032Z,42.53
2019-05-15T06:24:53.608Z,35.58
2019-05-15T06:27:27.935Z,33.40
2019-05-15T06:30:01.251Z,31.80
2019-05-15T06:32:33.934Z,35.13
2019-05-15T06:35:08.713Z,29.48
2019-05-15T06:37:40.422Z,17.12
2019-05-15T06:40:12.073Z,23.40
2019-05-15T06:42:43.869Z,25.15
2019-05-15T06:45:15.615Z,25.75
2019-05-15T06:47:48.254Z,22.30
2019-05-15T06:50:32.071Z,22.75
2019-05-15T06:53:10.421Z,24.37
2019-05-15T06:55:42.017Z,24.77
2019-05-15T06:58:14.672Z,23.70
2019-05-15T07:00:48.766Z,24.20
2019-05-15T07:03:25.775Z,26.15
2019-05-15T07:05:54.442Z,25.82
2019-05-15T07:08:28.665Z,23.60
2019-05-15T07:11:01.422Z,25.45
2019-05-15T07:13:51.239Z,24.27
2019-05-15T07:16:19.239Z,27.22
2019-05-15T07:18:50.981Z,25.40
2019-05-15T07:21:22.570Z,26.80
2019-05-15T07:23:58.685Z,25.20
2019-05-15T07:26:31.644Z,19.35
2019-05-15T07:29:15.214Z,17.40
2019-05-15T07:31:47.851Z,16.52
2019-05-15T07:34:21.675Z,14.85
2019-05-15T07:36:53.504Z,11.53
2019-05-15T07:39:28.697Z,13.32
2019-05-15T07:42:01.498Z,9.28
2019-05-15T07:47:10.840Z,11.50
2019-05-15T07:49:42.543Z,11.85
2019-05-15T07:52:14.199Z,11.63
2019-05-15T07:54:45.826Z,10.50
2019-05-15T07:57:20.710Z,11.25
2019-05-15T07:59:55.114Z,11.10
2019-05-15T08:02:28.444Z,10.18
2019-05-15T08:05:00.740Z,15.58
2019-05-15T08:07:34.027Z,12.35
2019-05-15T08:10:08.732Z,10.55
2019-05-15T08:12:45.219Z,10.28
2019-05-15T08:15:18.857Z,11.38
2019-05-15T08:18:04.148Z,12.93
2019-05-15T08:20:24.562Z,13.55
2019-05-15T08:22:58.272Z,18.02
2019-05-15T08:25:35.440Z,18.95
2019-05-15T08:28:12.791Z,19.60
2019-05-15T08:30:46.025Z,19.17
2019-05-15T08:33:17.955Z,18.90
2019-05-15T08:35:52.198Z,18.00
2019-05-15T08:38:23.910Z,16.02
2019-05-15T08:40:55.446Z,13.25
2019-05-15T08:43:31.624Z,11.43
2019-05-15T08:46:04.791Z,13.38
2019-05-15T08:48:39.169Z,13.88
2019-05-15T08:51:10.763Z,16.87
2019-05-15T08:53:48.810Z,17.40
2019-05-15T08:56:19.987Z,15.05
2019-05-15T08:58:51.842Z,13.00
2019-05-15T09:01:23.409Z,12.25
2019-05-15T09:03:55.151Z,10.43
2019-05-15T09:06:29.214Z,10.60
2019-05-15T09:09:01.768Z,10.55
2019-05-15T09:11:34.319Z,11.48
2019-05-15T09:14:11.694Z,10.93
2019-05-15T09:16:43.356Z,11.22
2019-05-15T09:19:15.002Z,11.80
2019-05-15T09:21:49.071Z,11.97
2019-05-15T09:24:20.293Z,11.30
2019-05-15T09:26:51.957Z,12.40
2019-05-15T09:29:23.868Z,11.25
2019-05-15T09:31:58.863Z,10.10
2019-05-15T09:34:46.654Z,9.78
2019-05-15T09:37:08.580Z,9.70
2019-05-15T09:39:40.280Z,10.10
2019-05-15T09:42:18.003Z,13.18
2019-05-15T09:44:51.328Z,12.68
2019-05-15T09:47:24.060Z,12.13
2019-05-15T09:49:58.930Z,11.55
2019-05-15T09:52:30.392Z,11.90
2019-05-15T09:55:02.385Z,11.75
2019-05-15T09:57:49.082Z,11.95
2019-05-15T10:00:29.290Z,14.07
2019-05-15T10:03:03.524Z,19.45
2019-05-15T10:08:08.919Z,21.02
2019-05-15T10:10:41.821Z,22.52
2019-05-15T10:13:15.142Z,24.35
2019-05-15T10:15:51.235Z,24.45
2019-05-15T10:18:23.126Z,23.57
2019-05-15T10:20:58.101Z,25.25
2019-05-15T10:23:30.002Z,22.95
2019-05-15T10:26:02.904Z,20.65
2019-05-15T10:28:38.849Z,21.37
2019-05-15T10:31:10.330Z,20.70
2019-05-15T10:33:46.037Z,20.27
2019-05-15T10:36:24.099Z,20.17
2019-05-15T10:38:56.954Z,20.27
2019-05-15T10:41:30.614Z,21.48
2019-05-15T10:44:04.698Z,20.00
2019-05-15T10:46:38.291Z,21.05
2019-05-15T10:49:11.090Z,19.77
2019-05-15T10:51:43.933Z,20.15
2019-05-15T10:54:19.241Z,20.68
2019-05-15T10:56:54.238Z,20.25
2019-05-15T10:59:28.919Z,19.15
2019-05-15T11:05:04.304Z,15.68
2019-05-15T11:07:44.777Z,12.37
2019-05-15T11:10:18.601Z,11.83
2019-05-15T11:12:52.413Z,13.00
2019-05-15T11:15:40.517Z,13.10
2019-05-15T11:18:14.394Z,13.80
2019-05-15T11:20:48.649Z,13.08
2019-05-15T11:23:22.539Z,11.33
2019-05-15T11:25:54.293Z,11.45
2019-05-15T11:28:31.705Z,11.48
2019-05-15T11:31:00.736Z,11.12
2019-05-15T11:33:32.656Z,11.88
2019-05-15T11:36:06.269Z,11.18
2019-05-15T11:38:39.258Z,11.55
2019-05-15T11:41:12.135Z,10.38
2019-05-15T11:43:52.407Z,12.70
2019-05-15T11:46:25.805Z,12.50
2019-05-15T11:49:01.510Z,12.93
2019-05-15T11:51:38.330Z,12.28
2019-05-15T11:54:13.624Z,11.38
2019-05-15T11:56:49.004Z,11.38
2019-05-15T11:59:22.492Z,11.40
2019-05-15T12:01:58.087Z,11.40
2019-05-15T12:04:34.226Z,11.10
2019-05-15T12:07:18.194Z,12.10
2019-05-15T12:09:50.685Z,12.00
2019-05-15T12:12:22.602Z,11.78
2019-05-15T12:14:55.737Z,12.23
2019-05-15T12:17:30.086Z,14.63
2019-05-15T12:20:06.581Z,13.58
2019-05-15T12:22:43.306Z,13.70
2019-05-15T12:25:18.729Z,12.60
2019-05-15T12:28:02.915Z,11.88
2019-05-15T12:30:49.234Z,12.05
2019-05-15T12:33:33.481Z,11.63
2019-05-15T12:36:10.203Z,11.53
2019-05-15T12:39:13.734Z,11.53
2019-05-15T13:03:18.202Z,12.10
2019-05-15T13:05:54.755Z,12.88
2019-05-15T13:08:29.074Z,12.07
2019-05-15T13:11:00.032Z,13.20
2019-05-15T13:13:33.299Z,14.05
2019-05-15T13:16:05.100Z,13.83
2019-05-15T13:18:38.651Z,12.78
2019-05-15T13:21:12.873Z,12.05
2019-05-15T13:26:23.820Z,12.30
2019-05-15T13:28:52.657Z,12.47
2019-05-15T13:31:28.402Z,12.70
2019-05-15T13:34:08.120Z,12.82
2019-05-15T13:37:09.170Z,13.40
2019-05-15T13:39:58.530Z,12.75
2019-05-15T13:42:42.057Z,12.60
2019-05-15T13:48:40.984Z,13.43
2019-05-15T13:51:12.833Z,13.55
2019-05-15T13:53:44.929Z,13.10
2019-05-15T13:56:18.208Z,12.75
2019-05-15T13:58:50.471Z,12.50
2019-05-15T14:01:28.624Z,13.00
2019-05-15T14:36:08.446Z,14.55
2019-05-15T14:40:28.563Z,14.98
2019-05-15T14:43:12.679Z,14.80
2019-05-15T14:45:49.380Z,15.40
2019-05-15T14:48:28.504Z,14.83
2019-05-15T14:51:01.114Z,14.73
2019-05-15T14:56:48.709Z,15.28
2019-05-15T14:59:21.277Z,15.28
2019-05-15T15:01:58.147Z,15.20
2019-05-15T15:04:39.245Z,15.65
2019-05-15T15:07:48.796Z,15.40
2019-05-15T15:11:17.800Z,15.80
2019-05-15T15:15:24.566Z,16.65
2019-05-15T15:17:29.721Z,18.20
2019-05-15T15:24:35.367Z,16.62
2019-05-15T15:27:13.232Z,17.75
2019-05-15T15:29:50.020Z,19.35
2019-05-15T15:32:28.389Z,18.75
2019-05-15T15:35:15.773Z,18.57
2019-05-15T15:37:51.516Z,18.55
2019-05-15T15:40:28.114Z,19.25
2019-05-15T15:43:00.315Z,17.95
2019-05-15T15:48:21.695Z,15.30
2019-05-15T15:50:58.585Z,13.68
2019-05-15T15:53:39.061Z,12.07
2019-05-15T15:56:19.804Z,12.80
2019-05-15T15:59:21.667Z,12.10
2019-05-15T16:01:53.999Z,11.08
2019-05-15T16:04:25.638Z,10.95
2019-05-15T16:06:59.989Z,10.93
2019-05-15T16:09:31.723Z,10.25
2019-05-15T16:12:03.582Z,10.43
2019-05-15T16:14:35.362Z,10.80
2019-05-15T16:17:08.629Z,11.05
2019-05-15T16:20:03.739Z,10.15
2019-05-15T16:22:48.714Z,10.45
2019-05-15T16:25:21.224Z,10.25
2019-05-15T16:27:57.796Z,10.23
2019-05-15T16:30:31.672Z,9.90
2019-05-15T16:33:10.742Z,10.03
2019-05-15T16:35:43.080Z,10.13
2019-05-15T16:38:19.256Z,10.83
2019-05-15T16:41:05.376Z,9.55
2019-05-15T16:46:20.352Z,11.25
2019-05-15T16:48:52.243Z,10.10
2019-05-15T16:51:24.104Z,13.60
2019-05-15T16:53:58.906Z,11.35
2019-05-15T16:56:36.383Z,10.88
2019-05-15T16:59:07.591Z,11.12
2019-05-15T17:01:41.192Z,10.98
2019-05-15T17:04:14.207Z,10.63
2019-05-15T17:06:49.406Z,10.98
2019-05-15T17:09:22.444Z,11.70
2019-05-15T17:11:55.269Z,11.03
2019-05-15T17:14:28.792Z,10.95
2019-05-15T17:17:00.714Z,11.20
2019-05-15T17:19:32.847Z,11.20
2019-05-15T17:22:09.250Z,10.82
2019-05-15T17:24:39.951Z,10.88
2019-05-15T17:27:12.461Z,10.58
2019-05-15T17:29:44.190Z,10.53
2019-05-15T17:32:18.417Z,10.80
2019-05-15T17:34:51.342Z,10.60
2019-05-15T17:37:24.661Z,10.75
2019-05-15T17:39:58.914Z,10.58
2019-05-15T17:42:31.150Z,11.22
2019-05-15T17:45:04.278Z,11.57
2019-05-15T17:47:38.841Z,12.28
2019-05-15T17:50:13.123Z,11.35
2019-05-15T17:52:45.149Z,11.68
2019-05-15T17:55:20.237Z,12.05
2019-05-15T17:57:56.657Z,11.78
2019-05-15T18:00:28.663Z,13.00
2019-05-15T18:03:00.419Z,12.53
2019-05-15T18:05:32.047Z,13.03
2019-05-15T18:08:04.106Z,12.95
2019-05-15T18:10:35.982Z,12.90
2019-05-15T18:13:09.292Z,12.90
2019-05-15T18:15:42.128Z,14.55
2019-05-15T18:18:14.178Z,15.18
2019-05-15T18:20:51.350Z,15.10
2019-05-15T18:23:23.796Z,15.55
2019-05-15T18:25:58.208Z,15.88
2019-05-15T18:28:29.129Z,16.02
2019-05-15T18:31:01.024Z,16.60
2019-05-15T18:33:32.605Z,16.37
2019-05-15T18:36:04.175Z,15.85
2019-05-15T18:38:38.789Z,15.48
2019-05-15T18:41:09.940Z,15.32
2019-05-15T18:43:41.521Z,14.93
2019-05-15T18:46:13.059Z,16.77
2019-05-15T18:48:44.747Z,16.35
2019-05-15T18:51:16.372Z,16.30
2019-05-15T18:53:48.256Z,17.65
2019-05-15T18:56:19.891Z,18.92
2019-05-15T18:58:51.489Z,17.52
2019-05-15T19:01:23.082Z,18.12
2019-05-15T19:04:01.282Z,16.93
2019-05-15T19:06:32.943Z,17.48
2019-05-15T19:09:08.159Z,18.10
2019-05-15T19:11:39.985Z,18.95
2019-05-15T19:14:12.591Z,18.30
2019-05-15T19:16:44.238Z,19.17
2019-05-15T19:19:15.922Z,19.30
2019-05-15T19:21:53.096Z,18.73
2019-05-15T19:24:24.732Z,18.98
2019-05-15T19:26:58.508Z,18.27
2019-05-15T19:29:29.652Z,17.10
2019-05-15T19:32:01.208Z,19.17
2019-05-15T19:34:32.813Z,18.92
2019-05-15T19:37:04.502Z,19.60
2019-05-15T19:39:38.485Z,19.27
2019-05-15T19:42:09.463Z,19.57
2019-05-15T19:44:41.257Z,20.45
2019-05-15T19:47:12.827Z,20.70
2019-05-15T19:49:44.389Z,19.75
2019-05-15T19:52:23.036Z,20.80
2019-05-15T19:54:54.621Z,20.15
2019-05-15T19:57:28.018Z,20.17
2019-05-15T19:59:59.813Z,20.25
2019-05-15T20:02:31.367Z,19.50
2019-05-15T20:05:05.071Z,19.02
2019-05-15T20:07:38.988Z,18.62
2019-05-15T20:10:11.667Z,18.75
2019-05-15T20:12:43.618Z,19.62
2019-05-15T20:15:15.581Z,19.35
2019-05-15T20:17:48.202Z,19.15
2019-05-15T20:20:19.938Z,19.15
2019-05-15T20:22:51.802Z,19.62
2019-05-15T20:25:23.473Z,19.52
2019-05-15T20:27:54.949Z,19.77
2019-05-15T20:30:28.566Z,19.20
2019-05-15T20:33:00.166Z,19.75
2019-05-15T20:35:33.894Z,19.52
2019-05-15T20:38:09.060Z,20.10
2019-05-15T20:40:40.622Z,19.32
2019-05-15T20:43:15.877Z,20.25
2019-05-15T20:45:48.385Z,19.75
2019-05-15T20:48:25.189Z,20.35
2019-05-15T20:50:58.918Z,20.23
2019-05-15T20:53:34.457Z,19.70
2019-05-15T20:56:08.192Z,20.37
2019-05-15T20:58:39.350Z,19.92
2019-05-15T21:01:10.936Z,20.00
2019-05-15T21:03:42.473Z,19.37
2019-05-15T21:06:14.056Z,20.57
2019-05-15T21:08:48.584Z,18.95
2019-05-15T21:11:23.251Z,18.90
2019-05-15T21:13:54.821Z,19.48
2019-05-15T21:16:27.982Z,19.57
2019-05-15T21:19:00.303Z,19.70
2019-05-15T21:21:34.128Z,21.00
2019-05-15T21:24:05.693Z,21.00
2019-05-15T21:26:38.234Z,19.92
2019-05-15T21:29:09.857Z,20.02
2019-05-15T21:31:49.030Z,20.55
2019-05-15T21:34:36.688Z,19.75
2019-05-15T21:36:54.355Z,20.95
2019-05-15T21:39:29.879Z,20.80
2019-05-15T21:42:03.047Z,21.50
2019-05-15T21:44:34.692Z,20.00
2019-05-15T21:47:08.088Z,19.17
2019-05-15T21:49:42.573Z,20.30
2019-05-15T21:54:50.970Z,21.00
2019-05-15T21:57:35.686Z,21.05
2019-05-15T22:00:00.747Z,20.60
2019-05-15T22:02:34.556Z,20.88
2019-05-15T22:05:08.644Z,21.07
2019-05-15T22:07:40.370Z,21.15
2019-05-15T22:10:20.050Z,20.62
2019-05-15T22:12:53.335Z,20.00
2019-05-15T22:15:24.996Z,21.33
2019-05-15T22:17:56.688Z,21.27
2019-05-15T22:20:30.505Z,21.48
2019-05-15T22:23:01.665Z,21.60
2019-05-15T22:25:33.236Z,21.55
2019-05-15T22:28:05.193Z,22.50
2019-05-15T22:30:38.964Z,21.97
2019-05-15T22:33:10.923Z,22.45
2019-05-15T22:35:44.043Z,21.70
2019-05-15T22:38:17.955Z,22.15
2019-05-15T22:40:48.909Z,22.58
2019-05-15T22:43:23.852Z,24.10
2019-05-15T22:45:55.395Z,22.10
2019-05-15T22:48:28.681Z,23.95
2019-05-15T22:51:00.484Z,24.85
2019-05-15T22:53:32.288Z,29.00
2019-05-15T22:56:03.909Z,28.02
2019-05-15T22:58:38.655Z,25.88
2019-05-15T23:01:10.505Z,28.15
2019-05-15T23:03:42.170Z,27.85
2019-05-15T23:06:13.768Z,24.55
2019-05-15T23:08:45.377Z,22.13
2019-05-15T23:11:18.224Z,28.38
2019-05-15T23:13:51.222Z,27.77
2019-05-15T23:16:28.253Z,26.85
2019-05-15T23:18:59.599Z,28.67
2019-05-15T23:21:31.156Z,20.43
2019-05-15T23:24:02.737Z,27.80
2019-05-15T23:26:34.262Z,20.43
2019-05-15T23:29:08.065Z,17.90
2019-05-15T23:31:45.819Z,17.67
2019-05-15T23:34:18.696Z,16.67
2019-05-15T23:36:50.466Z,17.37
2019-05-15T23:39:23.026Z,20.17
2019-05-15T23:41:58.459Z,20.70
2019-05-15T23:44:31.121Z,18.17
2019-05-15T23:47:02.695Z,18.30
2019-05-15T23:49:34.248Z,18.67
2019-05-15T23:52:05.897Z,17.02
2019-05-15T23:54:38.534Z,16.77
2019-05-15T23:57:10.287Z,18.20
2019-05-15T23:59:47.633Z,18.45
